createdAt,value
2017-01-26T00:00:01.612Z,1010.28
2017-01-26T00:00:42.203Z,1010.29
2017-01-26T00:01:22.794Z,1010.26
2017-01-26T00:02:03.389Z,1010.31
2017-01-26T00:02:43.976Z,1010.23
2017-01-26T00:03:24.607Z,1010.25
2017-01-26T00:04:05.189Z,1010.25
2017-01-26T00:04:45.784Z,1010.28
2017-01-26T00:05:26.363Z,1010.23
2017-01-26T00:06:06.950Z,1010.14
2017-01-26T00:06:47.536Z,1010.22
2017-01-26T00:07:28.114Z,1010.22
2017-01-26T00:08:08.705Z,1010.23
2017-01-26T00:08:49.304Z,1010.23
2017-01-26T00:09:29.907Z,1010.18
2017-01-26T00:10:10.519Z,1010.17
2017-01-26T00:10:51.116Z,1010.14
2017-01-26T00:11:31.711Z,1010.14
2017-01-26T00:12:12.313Z,1010.1
2017-01-26T00:12:52.901Z,1010.12
2017-01-26T00:13:33.513Z,1010.08
2017-01-26T00:14:14.114Z,1010.07
2017-01-26T00:14:54.700Z,1010.05
2017-01-26T00:15:35.316Z,1010.05
2017-01-26T00:16:15.898Z,1010.04
2017-01-26T00:16:56.490Z,1010.06
2017-01-26T00:17:37.076Z,1010.05
2017-01-26T00:18:17.683Z,1010.07
2017-01-26T00:18:58.287Z,1010.02
2017-01-26T00:19:38.886Z,1010.05
2017-01-26T00:20:19.479Z,1010.01
2017-01-26T00:21:00.095Z,1010.01
2017-01-26T00:21:40.682Z,1010.01
2017-01-26T00:22:21.282Z,1010.01
2017-01-26T00:23:01.874Z,1009.99
2017-01-26T00:23:42.466Z,1010.02
2017-01-26T00:24:23.042Z,1009.99
2017-01-26T00:25:03.641Z,1009.99
2017-01-26T00:25:44.227Z,1010
2017-01-26T00:26:24.814Z,1009.99
2017-01-26T00:27:05.406Z,1010
2017-01-26T00:27:46.003Z,1009.98
2017-01-26T00:28:26.590Z,1009.96
2017-01-26T00:29:07.176Z,1009.99
2017-01-26T00:29:47.765Z,1009.96
2017-01-26T00:30:28.346Z,1009.98
2017-01-26T00:31:08.919Z,1009.96
2017-01-26T00:31:49.502Z,1009.99
2017-01-26T00:32:30.092Z,1009.96
2017-01-26T00:33:10.672Z,1009.96
2017-01-26T00:33:51.254Z,1009.92
2017-01-26T00:34:31.851Z,1009.91
2017-01-26T00:35:12.433Z,1009.96
2017-01-26T00:35:53.028Z,1009.92
2017-01-26T00:36:33.616Z,1009.92
2017-01-26T00:37:14.207Z,1009.92
2017-01-26T00:37:54.807Z,1009.89
2017-01-26T00:38:35.421Z,1009.91
2017-01-26T00:39:16.013Z,1009.9
2017-01-26T00:39:56.588Z,1009.92
2017-01-26T00:40:37.193Z,1009.9
2017-01-26T00:41:17.790Z,1009.91
2017-01-26T00:41:58.379Z,1009.87
2017-01-26T00:42:38.970Z,1009.86
2017-01-26T00:43:19.575Z,1009.88
2017-01-26T00:44:00.176Z,1009.87
2017-01-26T00:44:40.779Z,1009.88
2017-01-26T00:45:21.386Z,1009.86
2017-01-26T00:46:01.980Z,1009.88
2017-01-26T00:46:42.552Z,1009.88
2017-01-26T00:47:23.132Z,1009.84
2017-01-26T00:48:03.703Z,1009.83
2017-01-26T00:48:44.302Z,1009.85
2017-01-26T00:49:24.894Z,1009.89
2017-01-26T00:50:05.485Z,1009.86
2017-01-26T00:50:46.072Z,1009.9
2017-01-26T00:51:26.653Z,1009.86
2017-01-26T00:52:07.247Z,1009.88
2017-01-26T00:52:47.832Z,1009.9
2017-01-26T00:53:28.413Z,1009.89
2017-01-26T00:54:09.823Z,1009.89
2017-01-26T00:54:50.401Z,1009.92
2017-01-26T00:55:30.990Z,1009.88
2017-01-26T00:56:11.582Z,1009.88
2017-01-26T00:56:52.182Z,1009.89
2017-01-26T00:57:32.781Z,1009.89
2017-01-26T00:58:13.359Z,1009.86
2017-01-26T00:58:53.948Z,1009.85
2017-01-26T00:59:34.549Z,1009.85
2017-01-26T01:00:15.143Z,1009.84
2017-01-26T01:00:55.737Z,1009.84
2017-01-26T01:01:36.315Z,1009.85
2017-01-26T01:02:16.896Z,1009.84
2017-01-26T01:02:57.498Z,1009.87
2017-01-26T01:03:38.075Z,1009.81
2017-01-26T01:04:18.663Z,1009.82
2017-01-26T01:04:59.274Z,1009.8
2017-01-26T01:05:39.854Z,1009.76
2017-01-26T01:06:20.455Z,1009.78
2017-01-26T01:07:01.042Z,1009.77
2017-01-26T01:07:41.626Z,1009.82
2017-01-26T01:08:22.229Z,1009.79
2017-01-26T01:09:02.815Z,1009.77
2017-01-26T01:09:43.441Z,1009.79
2017-01-26T01:10:24.028Z,1009.81
2017-01-26T01:11:04.630Z,1009.77
2017-01-26T01:11:45.232Z,1009.79
2017-01-26T01:12:25.835Z,1009.81
2017-01-26T01:13:06.430Z,1009.79
2017-01-26T01:13:47.006Z,1009.81
2017-01-26T01:14:27.602Z,1009.8
2017-01-26T01:15:08.195Z,1009.82
2017-01-26T01:15:48.782Z,1009.83
2017-01-26T01:16:29.388Z,1009.8
2017-01-26T01:17:09.977Z,1009.78
2017-01-26T01:17:50.577Z,1009.81
2017-01-26T01:18:31.178Z,1009.78
2017-01-26T01:19:12.302Z,1009.79
2017-01-26T01:19:52.919Z,1009.79
2017-01-26T01:20:33.514Z,1009.74
2017-01-26T01:21:14.112Z,1009.81
2017-01-26T01:21:54.697Z,1009.82
2017-01-26T01:22:35.296Z,1009.79
2017-01-26T01:23:15.883Z,1009.79
2017-01-26T01:23:56.474Z,1009.84
2017-01-26T01:24:37.067Z,1009.83
2017-01-26T01:25:17.659Z,1009.86
2017-01-26T01:25:58.279Z,1009.78
2017-01-26T01:26:38.880Z,1009.84
2017-01-26T01:27:19.473Z,1009.82
2017-01-26T01:28:00.068Z,1009.84
2017-01-26T01:28:40.647Z,1009.84
2017-01-26T01:29:21.242Z,1009.84
2017-01-26T01:30:01.827Z,1009.8
2017-01-26T01:30:42.409Z,1009.78
2017-01-26T01:31:23.000Z,1009.8
2017-01-26T01:32:03.592Z,1009.79
2017-01-26T01:32:44.179Z,1009.8
2017-01-26T01:33:24.762Z,1009.78
2017-01-26T01:34:05.354Z,1009.83
2017-01-26T01:34:45.943Z,1009.77
2017-01-26T01:35:26.535Z,1009.75
2017-01-26T01:36:07.122Z,1009.76
2017-01-26T01:36:47.709Z,1009.74
2017-01-26T01:37:28.303Z,1009.8
2017-01-26T01:38:08.905Z,1009.76
2017-01-26T01:38:49.520Z,1009.75
2017-01-26T01:39:30.117Z,1009.77
2017-01-26T01:40:10.710Z,1009.74
2017-01-26T01:40:51.306Z,1009.75
2017-01-26T01:41:31.912Z,1009.76
2017-01-26T01:42:12.493Z,1009.77
2017-01-26T01:42:53.076Z,1009.78
2017-01-26T01:43:33.661Z,1009.78
2017-01-26T01:44:14.268Z,1009.79
2017-01-26T01:44:54.845Z,1009.77
2017-01-26T01:45:35.426Z,1009.77
2017-01-26T01:46:16.018Z,1009.77
2017-01-26T01:46:56.605Z,1009.78
2017-01-26T01:47:37.193Z,1009.76
2017-01-26T01:48:17.799Z,1009.76
2017-01-26T01:48:58.396Z,1009.74
2017-01-26T01:49:38.978Z,1009.75
2017-01-26T01:50:19.564Z,1009.76
2017-01-26T01:51:00.148Z,1009.73
2017-01-26T01:51:40.729Z,1009.75
2017-01-26T01:52:21.331Z,1009.73
2017-01-26T01:53:01.914Z,1009.75
2017-01-26T01:53:42.512Z,1009.76
2017-01-26T01:54:23.100Z,1009.73
2017-01-26T01:55:03.686Z,1009.75
2017-01-26T01:55:44.275Z,1009.77
2017-01-26T01:56:24.853Z,1009.76
2017-01-26T01:57:05.476Z,1009.73
2017-01-26T01:57:46.072Z,1009.77
2017-01-26T01:58:26.662Z,1009.74
2017-01-26T01:59:07.261Z,1009.74
2017-01-26T01:59:47.839Z,1009.75
2017-01-26T02:00:28.469Z,1009.73
2017-01-26T02:01:09.138Z,1009.7
2017-01-26T02:01:49.716Z,1009.72
2017-01-26T02:02:30.307Z,1009.71
2017-01-26T02:03:10.915Z,1009.73
2017-01-26T02:03:51.503Z,1009.7
2017-01-26T02:04:32.086Z,1009.68
2017-01-26T02:05:12.678Z,1009.68
2017-01-26T02:05:53.257Z,1009.67
2017-01-26T02:06:33.838Z,1009.67
2017-01-26T02:07:14.444Z,1009.63
2017-01-26T02:07:55.045Z,1009.6
2017-01-26T02:08:35.640Z,1009.61
2017-01-26T02:09:16.240Z,1009.58
2017-01-26T02:09:56.825Z,1009.61
2017-01-26T02:10:37.412Z,1009.6
2017-01-26T02:11:18.001Z,1009.6
2017-01-26T02:11:58.581Z,1009.58
2017-01-26T02:12:39.161Z,1009.6
2017-01-26T02:13:19.753Z,1009.61
2017-01-26T02:14:00.324Z,1009.6
2017-01-26T02:14:40.903Z,1009.6
2017-01-26T02:15:21.502Z,1009.59
2017-01-26T02:16:02.100Z,1009.58
2017-01-26T02:16:42.710Z,1009.59
2017-01-26T02:17:23.312Z,1009.57
2017-01-26T02:18:03.894Z,1009.57
2017-01-26T02:18:44.502Z,1009.57
2017-01-26T02:19:25.144Z,1009.58
2017-01-26T02:20:05.708Z,1009.57
2017-01-26T02:20:46.303Z,1009.57
2017-01-26T02:21:26.879Z,1009.54
2017-01-26T02:22:07.489Z,1009.53
2017-01-26T02:22:48.093Z,1009.55
2017-01-26T02:23:28.684Z,1009.51
2017-01-26T02:24:09.295Z,1009.52
2017-01-26T02:24:49.876Z,1009.5
2017-01-26T02:25:30.468Z,1009.51
2017-01-26T02:26:11.057Z,1009.53
2017-01-26T02:26:51.645Z,1009.56
2017-01-26T02:27:32.243Z,1009.51
2017-01-26T02:28:12.823Z,1009.48
2017-01-26T02:28:53.409Z,1009.52
2017-01-26T02:29:34.001Z,1009.54
2017-01-26T02:30:14.582Z,1009.51
2017-01-26T02:30:55.156Z,1009.51
2017-01-26T02:31:35.737Z,1009.47
2017-01-26T02:32:16.316Z,1009.49
2017-01-26T02:32:56.906Z,1009.44
2017-01-26T02:33:37.500Z,1009.48
2017-01-26T02:34:18.079Z,1009.47
2017-01-26T02:34:58.653Z,1009.46
2017-01-26T02:35:39.240Z,1009.41
2017-01-26T02:36:19.829Z,1009.38
2017-01-26T02:37:00.409Z,1009.42
2017-01-26T02:37:40.999Z,1009.41
2017-01-26T02:38:21.609Z,1009.36
2017-01-26T02:39:02.209Z,1009.36
2017-01-26T02:39:42.798Z,1009.34
2017-01-26T02:40:23.384Z,1009.36
2017-01-26T02:41:03.972Z,1009.36
2017-01-26T02:41:44.555Z,1009.31
2017-01-26T02:42:25.137Z,1009.33
2017-01-26T02:43:05.724Z,1009.32
2017-01-26T02:43:46.340Z,1009.31
2017-01-26T02:44:26.930Z,1009.31
2017-01-26T02:45:07.512Z,1009.3
2017-01-26T02:45:48.103Z,1009.28
2017-01-26T02:46:28.687Z,1009.26
2017-01-26T02:47:09.265Z,1009.27
2017-01-26T02:47:49.868Z,1009.23
2017-01-26T02:48:30.465Z,1009.22
2017-01-26T02:49:11.075Z,1009.24
2017-01-26T02:49:51.663Z,1009.23
2017-01-26T02:50:32.244Z,1009.22
2017-01-26T02:51:12.856Z,1009.24
2017-01-26T02:51:53.458Z,1009.18
2017-01-26T02:52:34.052Z,1009.15
2017-01-26T02:53:14.642Z,1009.16
2017-01-26T02:53:55.229Z,1009.16
2017-01-26T02:54:35.816Z,1009.18
2017-01-26T02:55:16.398Z,1009.17
2017-01-26T02:55:56.992Z,1009.16
2017-01-26T02:56:37.581Z,1009.18
2017-01-26T02:57:18.161Z,1009.18
2017-01-26T02:57:58.756Z,1009.19
2017-01-26T02:58:39.348Z,1009.19
2017-01-26T02:59:19.921Z,1009.18
2017-01-26T03:00:00.513Z,1009.16
2017-01-26T03:00:41.100Z,1009.18
2017-01-26T03:01:21.684Z,1009.16
2017-01-26T03:02:02.279Z,1009.18
2017-01-26T03:02:42.870Z,1009.15
2017-01-26T03:03:23.482Z,1009.12
2017-01-26T03:04:04.089Z,1009.15
2017-01-26T03:04:44.692Z,1009.14
2017-01-26T03:05:25.295Z,1009.17
2017-01-26T03:06:05.886Z,1009.15
2017-01-26T03:06:46.480Z,1009.17
2017-01-26T03:07:27.062Z,1009.16
2017-01-26T03:08:07.649Z,1009.18
2017-01-26T03:08:48.233Z,1009.16
2017-01-26T03:09:28.823Z,1009.13
2017-01-26T03:10:09.405Z,1009.18
2017-01-26T03:10:49.985Z,1009.16
2017-01-26T03:11:30.574Z,1009.11
2017-01-26T03:12:11.170Z,1009.13
2017-01-26T03:12:51.763Z,1009.12
2017-01-26T03:13:32.365Z,1009.09
2017-01-26T03:14:12.950Z,1009.09
2017-01-26T03:14:53.555Z,1009.12
2017-01-26T03:15:34.153Z,1009.1
2017-01-26T03:16:14.757Z,1009.11
2017-01-26T03:16:55.355Z,1009.07
2017-01-26T03:17:35.946Z,1009.06
2017-01-26T03:18:16.532Z,1009.03
2017-01-26T03:18:57.119Z,1009.06
2017-01-26T03:19:37.732Z,1009.08
2017-01-26T03:20:18.317Z,1009.04
2017-01-26T03:20:58.917Z,1009.07
2017-01-26T03:21:39.501Z,1009.06
2017-01-26T03:22:20.080Z,1009.02
2017-01-26T03:23:00.662Z,1009.04
2017-01-26T03:23:41.251Z,1009.05
2017-01-26T03:24:21.830Z,1009.05
2017-01-26T03:25:02.431Z,1009.01
2017-01-26T03:25:43.014Z,1009.04
2017-01-26T03:26:23.617Z,1009.03
2017-01-26T03:27:04.210Z,1009.05
2017-01-26T03:27:44.789Z,1009.02
2017-01-26T03:28:25.384Z,1009.05
2017-01-26T03:29:05.973Z,1009.04
2017-01-26T03:29:46.590Z,1009.07
2017-01-26T03:30:27.167Z,1009.07
2017-01-26T03:31:07.752Z,1009.04
2017-01-26T03:31:48.329Z,1009.07
2017-01-26T03:32:28.934Z,1009.06
2017-01-26T03:33:09.544Z,1009.03
2017-01-26T03:33:50.137Z,1009.02
2017-01-26T03:34:30.720Z,1009.02
2017-01-26T03:35:11.303Z,1009
2017-01-26T03:35:51.890Z,1009
2017-01-26T03:36:32.472Z,1008.97
2017-01-26T03:37:13.054Z,1009.02
2017-01-26T03:37:53.649Z,1008.93
2017-01-26T03:38:34.255Z,1008.97
2017-01-26T03:39:14.838Z,1008.95
2017-01-26T03:39:55.423Z,1008.93
2017-01-26T03:40:36.020Z,1008.93
2017-01-26T03:41:16.612Z,1008.92
2017-01-26T03:41:57.203Z,1008.93
2017-01-26T03:42:37.804Z,1008.9
2017-01-26T03:43:18.408Z,1008.9
2017-01-26T03:43:59.025Z,1008.9
2017-01-26T03:44:39.614Z,1008.9
2017-01-26T03:45:20.204Z,1008.9
2017-01-26T03:46:00.797Z,1008.87
2017-01-26T03:46:41.388Z,1008.89
2017-01-26T03:47:21.978Z,1008.87
2017-01-26T03:48:02.570Z,1008.9
2017-01-26T03:48:43.181Z,1008.88
2017-01-26T03:49:23.765Z,1008.88
2017-01-26T03:50:04.371Z,1008.89
2017-01-26T03:50:45.001Z,1008.89
2017-01-26T03:51:25.531Z,1008.89
2017-01-26T03:52:06.112Z,1008.9
2017-01-26T03:52:46.690Z,1008.88
2017-01-26T03:53:27.287Z,1008.88
2017-01-26T03:54:07.880Z,1008.89
2017-01-26T03:54:48.503Z,1008.88
2017-01-26T03:55:29.113Z,1008.88
2017-01-26T03:56:09.693Z,1008.88
2017-01-26T03:56:50.294Z,1008.88
2017-01-26T03:57:30.884Z,1008.89
2017-01-26T03:58:11.493Z,1008.88
2017-01-26T03:58:52.088Z,1008.86
2017-01-26T03:59:32.698Z,1008.86
2017-01-26T04:00:13.296Z,1008.86
2017-01-26T04:00:53.863Z,1008.81
2017-01-26T04:01:34.459Z,1008.85
2017-01-26T04:02:15.062Z,1008.88
2017-01-26T04:02:55.640Z,1008.89
2017-01-26T04:03:36.220Z,1008.83
2017-01-26T04:04:16.831Z,1008.81
2017-01-26T04:04:57.414Z,1008.85
2017-01-26T04:05:38.004Z,1008.86
2017-01-26T04:06:18.588Z,1008.87
2017-01-26T04:06:59.166Z,1008.82
2017-01-26T04:07:39.773Z,1008.83
2017-01-26T04:08:20.373Z,1008.83
2017-01-26T04:09:00.969Z,1008.84
2017-01-26T04:09:41.568Z,1008.84
2017-01-26T04:10:22.150Z,1008.84
2017-01-26T04:11:02.741Z,1008.84
2017-01-26T04:11:43.327Z,1008.83
2017-01-26T04:12:23.912Z,1008.86
2017-01-26T04:13:04.494Z,1008.84
2017-01-26T04:13:45.094Z,1008.82
2017-01-26T04:14:25.682Z,1008.8
2017-01-26T04:15:06.307Z,1008.81
2017-01-26T04:15:46.875Z,1008.78
2017-01-26T04:16:27.472Z,1008.8
2017-01-26T04:17:08.059Z,1008.78
2017-01-26T04:17:48.643Z,1008.79
2017-01-26T04:18:29.242Z,1008.79
2017-01-26T04:19:09.840Z,1008.79
2017-01-26T04:19:50.441Z,1008.8
2017-01-26T04:20:31.030Z,1008.82
2017-01-26T04:21:11.613Z,1008.83
2017-01-26T04:21:52.206Z,1008.84
2017-01-26T04:22:32.795Z,1008.77
2017-01-26T04:23:13.385Z,1008.87
2017-01-26T04:23:53.967Z,1008.83
2017-01-26T04:24:34.562Z,1008.82
2017-01-26T04:25:15.161Z,1008.84
2017-01-26T04:25:55.750Z,1008.84
2017-01-26T04:26:36.349Z,1008.85
2017-01-26T04:27:16.932Z,1008.84
2017-01-26T04:27:57.516Z,1008.85
2017-01-26T04:28:38.141Z,1008.88
2017-01-26T04:29:18.742Z,1008.85
2017-01-26T04:29:59.327Z,1008.86
2017-01-26T04:30:39.909Z,1008.83
2017-01-26T04:31:20.488Z,1008.83
2017-01-26T04:32:01.089Z,1008.83
2017-01-26T04:32:41.682Z,1008.8
2017-01-26T04:33:22.283Z,1008.81
2017-01-26T04:34:02.891Z,1008.81
2017-01-26T04:34:43.492Z,1008.82
2017-01-26T04:35:24.083Z,1008.8
2017-01-26T04:36:04.701Z,1008.79
2017-01-26T04:36:45.297Z,1008.8
2017-01-26T04:37:25.877Z,1008.77
2017-01-26T04:38:06.469Z,1008.8
2017-01-26T04:38:47.079Z,1008.79
2017-01-26T04:39:27.666Z,1008.81
2017-01-26T04:40:08.252Z,1008.79
2017-01-26T04:40:48.854Z,1008.8
2017-01-26T04:41:29.458Z,1008.79
2017-01-26T04:42:10.045Z,1008.82
2017-01-26T04:42:50.645Z,1008.85
2017-01-26T04:43:31.266Z,1008.81
2017-01-26T04:44:11.849Z,1008.83
2017-01-26T04:44:52.440Z,1008.82
2017-01-26T04:45:33.048Z,1008.81
2017-01-26T04:46:13.636Z,1008.85
2017-01-26T04:46:54.239Z,1008.83
2017-01-26T04:47:34.824Z,1008.83
2017-01-26T04:48:15.425Z,1008.84
2017-01-26T04:48:56.011Z,1008.89
2017-01-26T04:49:36.616Z,1008.86
2017-01-26T04:50:17.191Z,1008.87
2017-01-26T04:50:57.786Z,1008.89
2017-01-26T04:51:38.362Z,1008.89
2017-01-26T04:52:18.957Z,1008.92
2017-01-26T04:52:59.543Z,1008.89
2017-01-26T04:53:40.135Z,1008.96
2017-01-26T04:54:20.731Z,1008.91
2017-01-26T04:55:01.315Z,1008.88
2017-01-26T04:55:41.899Z,1008.88
2017-01-26T04:56:22.497Z,1008.88
2017-01-26T04:57:03.073Z,1008.87
2017-01-26T04:57:43.663Z,1008.88
2017-01-26T04:58:24.246Z,1008.86
2017-01-26T04:59:04.826Z,1008.84
2017-01-26T04:59:45.418Z,1008.85
2017-01-26T05:00:26.007Z,1008.81
2017-01-26T05:01:06.591Z,1008.81
2017-01-26T05:01:47.175Z,1008.78
2017-01-26T05:02:27.775Z,1008.74
2017-01-26T05:03:08.374Z,1008.78
2017-01-26T05:03:48.976Z,1008.75
2017-01-26T05:04:29.579Z,1008.74
2017-01-26T05:05:10.166Z,1008.75
2017-01-26T05:05:50.742Z,1008.77
2017-01-26T05:06:31.334Z,1008.76
2017-01-26T05:07:11.917Z,1008.78
2017-01-26T05:07:52.500Z,1008.76
2017-01-26T05:08:33.088Z,1008.76
2017-01-26T05:09:13.671Z,1008.75
2017-01-26T05:09:54.266Z,1008.74
2017-01-26T05:10:34.871Z,1008.75
2017-01-26T05:11:15.422Z,1008.73
2017-01-26T05:11:56.006Z,1008.72
2017-01-26T05:12:36.610Z,1008.73
2017-01-26T05:13:17.212Z,1008.78
2017-01-26T05:13:57.802Z,1008.73
2017-01-26T05:14:38.389Z,1008.75
2017-01-26T05:15:19.020Z,1008.74
2017-01-26T05:15:59.607Z,1008.77
2017-01-26T05:16:40.205Z,1008.76
2017-01-26T05:17:20.791Z,1008.77
2017-01-26T05:18:01.390Z,1008.74
2017-01-26T05:18:41.971Z,1008.77
2017-01-26T05:19:22.568Z,1008.75
2017-01-26T05:20:03.169Z,1008.76
2017-01-26T05:20:43.757Z,1008.73
2017-01-26T05:21:24.367Z,1008.71
2017-01-26T05:22:04.970Z,1008.72
2017-01-26T05:22:45.570Z,1008.71
2017-01-26T05:23:26.148Z,1008.73
2017-01-26T05:24:06.732Z,1008.75
2017-01-26T05:24:47.320Z,1008.74
2017-01-26T05:25:27.910Z,1008.76
2017-01-26T05:26:08.492Z,1008.74
2017-01-26T05:26:49.095Z,1008.77
2017-01-26T05:27:29.704Z,1008.72
2017-01-26T05:28:10.307Z,1008.73
2017-01-26T05:28:50.893Z,1008.7
2017-01-26T05:29:31.477Z,1008.7
2017-01-26T05:30:12.078Z,1008.7
2017-01-26T05:30:52.666Z,1008.71
2017-01-26T05:31:33.258Z,1008.74
2017-01-26T05:32:13.851Z,1008.7
2017-01-26T05:32:54.465Z,1008.71
2017-01-26T05:33:35.077Z,1008.7
2017-01-26T05:34:15.665Z,1008.7
2017-01-26T05:34:56.259Z,1008.72
2017-01-26T05:35:36.860Z,1008.73
2017-01-26T05:36:17.450Z,1008.71
2017-01-26T05:36:58.068Z,1008.72
2017-01-26T05:37:38.659Z,1008.71
2017-01-26T05:38:19.253Z,1008.71
2017-01-26T05:38:59.849Z,1008.72
2017-01-26T05:39:40.454Z,1008.74
2017-01-26T05:40:21.074Z,1008.72
2017-01-26T05:41:01.673Z,1008.71
2017-01-26T05:41:42.268Z,1008.73
2017-01-26T05:42:22.887Z,1008.7
2017-01-26T05:43:03.473Z,1008.74
2017-01-26T05:43:44.075Z,1008.73
2017-01-26T05:44:24.673Z,1008.71
2017-01-26T05:45:05.264Z,1008.75
2017-01-26T05:45:45.864Z,1008.72
2017-01-26T05:46:26.475Z,1008.75
2017-01-26T05:47:07.050Z,1008.72
2017-01-26T05:47:47.652Z,1008.75
2017-01-26T05:48:28.232Z,1008.78
2017-01-26T05:49:08.814Z,1008.74
2017-01-26T05:49:49.401Z,1008.77
2017-01-26T05:50:29.988Z,1008.79
2017-01-26T05:51:10.592Z,1008.79
2017-01-26T05:51:51.179Z,1008.78
2017-01-26T05:52:31.765Z,1008.8
2017-01-26T05:53:12.349Z,1008.81
2017-01-26T05:53:52.962Z,1008.78
2017-01-26T05:54:33.544Z,1008.8
2017-01-26T05:55:14.163Z,1008.81
2017-01-26T05:55:54.747Z,1008.8
2017-01-26T05:56:35.339Z,1008.78
2017-01-26T05:57:15.923Z,1008.85
2017-01-26T05:57:56.519Z,1008.82
2017-01-26T05:58:37.101Z,1008.88
2017-01-26T05:59:17.679Z,1008.83
2017-01-26T05:59:58.290Z,1008.8
2017-01-26T06:00:38.894Z,1008.87
2017-01-26T06:01:19.482Z,1008.85
2017-01-26T06:02:00.075Z,1008.84
2017-01-26T06:02:40.669Z,1008.86
2017-01-26T06:03:21.244Z,1008.91
2017-01-26T06:04:01.824Z,1008.97
2017-01-26T06:04:42.415Z,1008.94
2017-01-26T06:05:23.000Z,1008.96
2017-01-26T06:06:03.596Z,1008.98
2017-01-26T06:06:44.191Z,1008.96
2017-01-26T06:07:24.779Z,1008.96
2017-01-26T06:08:05.351Z,1008.95
2017-01-26T06:08:45.936Z,1008.93
2017-01-26T06:09:26.524Z,1008.94
2017-01-26T06:10:07.111Z,1008.97
2017-01-26T06:10:47.707Z,1008.99
2017-01-26T06:11:28.312Z,1008.97
2017-01-26T06:12:08.902Z,1008.94
2017-01-26T06:12:49.511Z,1008.98
2017-01-26T06:13:30.090Z,1008.96
2017-01-26T06:14:10.691Z,1008.98
2017-01-26T06:14:51.272Z,1008.98
2017-01-26T06:15:31.863Z,1008.97
2017-01-26T06:16:12.483Z,1008.97
2017-01-26T06:16:53.091Z,1008.95
2017-01-26T06:17:33.696Z,1008.92
2017-01-26T06:18:14.298Z,1008.94
2017-01-26T06:18:54.902Z,1008.94
2017-01-26T06:19:35.486Z,1008.92
2017-01-26T06:20:16.078Z,1008.98
2017-01-26T06:20:56.653Z,1008.94
2017-01-26T06:21:37.238Z,1008.96
2017-01-26T06:22:17.817Z,1008.91
2017-01-26T06:22:58.420Z,1008.97
2017-01-26T06:23:38.998Z,1008.94
2017-01-26T06:24:19.581Z,1008.95
2017-01-26T06:25:00.159Z,1008.93
2017-01-26T06:25:40.757Z,1008.95
2017-01-26T06:26:21.339Z,1008.93
2017-01-26T06:27:01.928Z,1008.95
2017-01-26T06:27:42.511Z,1008.93
2017-01-26T06:28:23.090Z,1008.94
2017-01-26T06:29:03.675Z,1008.96
2017-01-26T06:29:44.270Z,1008.95
2017-01-26T06:30:24.878Z,1008.91
2017-01-26T06:31:05.454Z,1008.99
2017-01-26T06:31:46.041Z,1008.96
2017-01-26T06:32:26.625Z,1008.98
2017-01-26T06:33:07.217Z,1009
2017-01-26T06:33:47.794Z,1008.97
2017-01-26T06:34:28.400Z,1008.98
2017-01-26T06:35:09.003Z,1008.92
2017-01-26T06:35:49.578Z,1008.94
2017-01-26T06:36:30.171Z,1008.95
2017-01-26T06:37:10.753Z,1008.99
2017-01-26T06:37:51.355Z,1008.98
2017-01-26T06:38:31.957Z,1008.97
2017-01-26T06:39:12.555Z,1008.98
2017-01-26T06:39:53.146Z,1008.96
2017-01-26T06:40:33.740Z,1008.99
2017-01-26T06:41:14.328Z,1009
2017-01-26T06:41:54.918Z,1009.01
2017-01-26T06:42:35.498Z,1008.98
2017-01-26T06:43:16.086Z,1009
2017-01-26T06:43:56.668Z,1009.01
2017-01-26T06:44:37.248Z,1008.98
2017-01-26T06:45:17.853Z,1009
2017-01-26T06:45:58.450Z,1008.98
2017-01-26T06:46:39.043Z,1008.98
2017-01-26T06:47:19.625Z,1009.03
2017-01-26T06:48:00.228Z,1009.01
2017-01-26T06:48:40.820Z,1009.05
2017-01-26T06:49:21.418Z,1008.98
2017-01-26T06:50:02.034Z,1009
2017-01-26T06:50:42.635Z,1008.99
2017-01-26T06:51:23.223Z,1009
2017-01-26T06:52:03.802Z,1009.04
2017-01-26T06:52:44.393Z,1009.05
2017-01-26T06:53:24.979Z,1009.01
2017-01-26T06:54:05.577Z,1009.04
2017-01-26T06:54:46.155Z,1009.03
2017-01-26T06:55:26.746Z,1009.05
2017-01-26T06:56:07.341Z,1009.06
2017-01-26T06:56:47.930Z,1009.04
2017-01-26T06:57:28.504Z,1009.07
2017-01-26T06:58:09.094Z,1009.07
2017-01-26T06:58:49.690Z,1009.07
2017-01-26T06:59:30.281Z,1009.07
2017-01-26T07:00:10.872Z,1009.06
2017-01-26T07:00:51.459Z,1009.05
2017-01-26T07:01:32.042Z,1009.04
2017-01-26T07:02:12.620Z,1009.08
2017-01-26T07:02:53.205Z,1009.06
2017-01-26T07:03:33.804Z,1009.09
2017-01-26T07:04:14.415Z,1009.08
2017-01-26T07:04:55.005Z,1009.09
2017-01-26T07:05:35.582Z,1009.11
2017-01-26T07:06:16.171Z,1009.08
2017-01-26T07:06:56.782Z,1009.11
2017-01-26T07:07:37.375Z,1009.13
2017-01-26T07:08:17.972Z,1009.1
2017-01-26T07:08:58.588Z,1009.1
2017-01-26T07:09:39.144Z,1009.09
2017-01-26T07:10:19.741Z,1009.11
2017-01-26T07:11:00.336Z,1009.1
2017-01-26T07:11:40.945Z,1009.13
2017-01-26T07:12:21.552Z,1009.12
2017-01-26T07:13:02.152Z,1009.09
2017-01-26T07:13:42.747Z,1009.11
2017-01-26T07:14:23.343Z,1009.11
2017-01-26T07:15:03.922Z,1009.05
2017-01-26T07:15:44.507Z,1009.08
2017-01-26T07:16:25.111Z,1009.05
2017-01-26T07:17:05.738Z,1009.06
2017-01-26T07:17:46.296Z,1009.06
2017-01-26T07:18:26.896Z,1009.08
2017-01-26T07:19:07.480Z,1009.03
2017-01-26T07:19:48.070Z,1009.04
2017-01-26T07:20:28.672Z,1009.04
2017-01-26T07:21:09.253Z,1009.03
2017-01-26T07:21:49.853Z,1008.99
2017-01-26T07:22:30.453Z,1008.99
2017-01-26T07:23:11.030Z,1009
2017-01-26T07:23:51.628Z,1009.02
2017-01-26T07:24:32.239Z,1008.99
2017-01-26T07:25:12.836Z,1008.98
2017-01-26T07:25:53.445Z,1008.97
2017-01-26T07:26:34.020Z,1008.95
2017-01-26T07:27:14.608Z,1008.95
2017-01-26T07:27:55.218Z,1008.92
2017-01-26T07:28:35.804Z,1008.9
2017-01-26T07:29:16.449Z,1008.88
2017-01-26T07:29:57.938Z,1008.92
2017-01-26T07:30:38.568Z,1008.91
2017-01-26T07:31:19.156Z,1008.87
2017-01-26T07:31:59.744Z,1008.92
2017-01-26T07:32:40.339Z,1008.87
2017-01-26T07:33:20.960Z,1008.89
2017-01-26T07:34:01.578Z,1008.91
2017-01-26T07:34:42.184Z,1008.89
2017-01-26T07:35:22.772Z,1008.89
2017-01-26T07:36:03.354Z,1008.88
2017-01-26T07:36:43.961Z,1008.92
2017-01-26T07:37:24.551Z,1008.93
2017-01-26T07:38:05.150Z,1008.92
2017-01-26T07:38:45.734Z,1008.94
2017-01-26T07:39:26.336Z,1008.93
2017-01-26T07:40:06.946Z,1008.93
2017-01-26T07:40:47.572Z,1008.92
2017-01-26T07:41:28.154Z,1008.94
2017-01-26T07:42:08.744Z,1008.91
2017-01-26T07:42:49.325Z,1008.89
2017-01-26T07:43:29.954Z,1008.89
2017-01-26T07:44:10.564Z,1008.87
2017-01-26T07:44:51.157Z,1008.89
2017-01-26T07:45:31.762Z,1008.95
2017-01-26T07:46:12.380Z,1008.92
2017-01-26T07:46:52.968Z,1008.9
2017-01-26T07:47:33.569Z,1008.93
2017-01-26T07:48:14.161Z,1008.91
2017-01-26T07:48:54.762Z,1008.92
2017-01-26T07:49:35.346Z,1008.91
2017-01-26T07:50:15.951Z,1008.91
2017-01-26T07:50:56.551Z,1008.93
2017-01-26T07:51:37.151Z,1008.91
2017-01-26T07:52:17.739Z,1008.94
2017-01-26T07:52:58.339Z,1008.96
2017-01-26T07:53:38.938Z,1008.91
2017-01-26T07:54:19.543Z,1008.9
2017-01-26T07:55:00.151Z,1008.9
2017-01-26T07:55:40.768Z,1008.92
2017-01-26T07:56:21.371Z,1008.9
2017-01-26T07:57:01.989Z,1008.92
2017-01-26T07:57:42.592Z,1008.92
2017-01-26T07:58:23.191Z,1008.93
2017-01-26T07:59:03.806Z,1008.93
2017-01-26T07:59:44.397Z,1008.93
2017-01-26T08:00:25.031Z,1008.92
2017-01-26T08:01:05.599Z,1008.96
2017-01-26T08:01:46.200Z,1008.93
2017-01-26T08:02:26.823Z,1008.92
2017-01-26T08:03:07.415Z,1008.93
2017-01-26T08:03:48.001Z,1008.94
2017-01-26T08:04:28.611Z,1008.93
2017-01-26T08:05:09.214Z,1008.91
2017-01-26T08:05:49.833Z,1008.9
2017-01-26T08:06:30.420Z,1008.92
2017-01-26T08:07:11.016Z,1008.94
2017-01-26T08:07:51.638Z,1008.92
2017-01-26T08:08:32.228Z,1008.91
2017-01-26T08:09:12.849Z,1008.91
2017-01-26T08:09:53.440Z,1008.94
2017-01-26T08:10:34.051Z,1008.89
2017-01-26T08:11:14.642Z,1008.91
2017-01-26T08:11:55.269Z,1008.9
2017-01-26T08:12:35.892Z,1008.91